sensor_id;sensor_type;location;lat;lon;timestamp;P1;durP1;ratioP1;P2;durP2;ratioP2
8572;SDS011;4324;42.012;24.872;2023-07-13T00:01:52;10.17;;;9.27;;
8572;SDS011;4324;42.012;24.872;2023-07-13T00:04:20;11.00;;;9.97;;
8572;SDS011;4324;42.012;24.872;2023-07-13T00:06:50;10.00;;;9.30;;
8572;SDS011;4324;42.012;24.872;2023-07-13T00:09:20;11.03;;;10.03;;
8572;SDS011;4324;42.012;24.872;2023-07-13T00:11:50;10.57;;;9.67;;
8572;SDS011;4324;42.012;24.872;2023-07-13T00:14:20;10.83;;;9.67;;
8572;SDS011;4324;42.012;24.872;2023-07-13T00:16:47;10.60;;;9.60;;
8572;SDS011;4324;42.012;24.872;2023-07-13T00:19:14;10.43;;;9.50;;
8572;SDS011;4324;42.012;24.872;2023-07-13T00:21:41;11.67;;;10.57;;
8572;SDS011;4324;42.012;24.872;2023-07-13T00:24:10;10.47;;;9.60;;
8572;SDS011;4324;42.012;24.872;2023-07-13T00:26:40;10.73;;;9.73;;
8572;SDS011;4324;42.012;24.872;2023-07-13T00:29:11;10.37;;;9.50;;
8572;SDS011;4324;42.012;24.872;2023-07-13T00:31:38;10.90;;;9.97;;
8572;SDS011;4324;42.012;24.872;2023-07-13T00:34:05;11.10;;;9.90;;
8572;SDS011;4324;42.012;24.872;2023-07-13T00:36:32;11.30;;;10.10;;
8572;SDS011;4324;42.012;24.872;2023-07-13T00:39:00;12.43;;;11.17;;
8572;SDS011;4324;42.012;24.872;2023-07-13T00:41:27;10.00;;;9.30;;
8572;SDS011;4324;42.012;24.872;2023-07-13T00:43:58;10.60;;;9.67;;
8572;SDS011;4324;42.012;24.872;2023-07-13T00:46:27;11.00;;;10.10;;
8572;SDS011;4324;42.012;24.872;2023-07-13T00:48:56;10.53;;;9.73;;
8572;SDS011;4324;42.012;24.872;2023-07-13T00:51:27;10.67;;;9.77;;
8572;SDS011;4324;42.012;24.872;2023-07-13T00:53:58;10.90;;;10.00;;
8572;SDS011;4324;42.012;24.872;2023-07-13T00:56:30;10.40;;;9.60;;
8572;SDS011;4324;42.012;24.872;2023-07-13T00:59:02;10.87;;;9.87;;
8572;SDS011;4324;42.012;24.872;2023-07-13T01:01:32;10.87;;;9.87;;
8572;SDS011;4324;42.012;24.872;2023-07-13T01:04:02;10.57;;;9.77;;
8572;SDS011;4324;42.012;24.872;2023-07-13T01:06:33;10.70;;;9.73;;
8572;SDS011;4324;42.012;24.872;2023-07-13T01:09:00;10.63;;;9.83;;
8572;SDS011;4324;42.012;24.872;2023-07-13T01:11:28;11.30;;;10.30;;
8572;SDS011;4324;42.012;24.872;2023-07-13T01:13:55;12.00;;;10.90;;
8572;SDS011;4324;42.012;24.872;2023-07-13T01:16:26;10.77;;;9.80;;
8572;SDS011;4324;42.012;24.872;2023-07-13T01:18:55;12.03;;;10.70;;
8572;SDS011;4324;42.012;24.872;2023-07-13T01:21:26;10.90;;;10.07;;
8572;SDS011;4324;42.012;24.872;2023-07-13T01:23:54;10.97;;;9.97;;
8572;SDS011;4324;42.012;24.872;2023-07-13T01:26:22;10.93;;;9.83;;
8572;SDS011;4324;42.012;24.872;2023-07-13T01:28:49;10.73;;;9.83;;
8572;SDS011;4324;42.012;24.872;2023-07-13T01:31:21;10.03;;;9.13;;
8572;SDS011;4324;42.012;24.872;2023-07-13T01:33:48;11.03;;;9.90;;
8572;SDS011;4324;42.012;24.872;2023-07-13T01:36:18;10.17;;;9.37;;
8572;SDS011;4324;42.012;24.872;2023-07-13T01:38:47;10.40;;;9.50;;
8572;SDS011;4324;42.012;24.872;2023-07-13T01:41:14;9.50;;;8.57;;
8572;SDS011;4324;42.012;24.872;2023-07-13T01:43:42;10.70;;;9.70;;
8572;SDS011;4324;42.012;24.872;2023-07-13T01:46:09;10.90;;;10.00;;
8572;SDS011;4324;42.012;24.872;2023-07-13T01:48:38;10.63;;;9.63;;
8572;SDS011;4324;42.012;24.872;2023-07-13T01:51:05;11.40;;;10.10;;
8572;SDS011;4324;42.012;24.872;2023-07-13T01:53:32;9.70;;;8.93;;
8572;SDS011;4324;42.012;24.872;2023-07-13T01:56:04;10.07;;;9.17;;
8572;SDS011;4324;42.012;24.872;2023-07-13T01:58:33;10.63;;;9.77;;
8572;SDS011;4324;42.012;24.872;2023-07-13T02:01:00;10.60;;;9.50;;
8572;SDS011;4324;42.012;24.872;2023-07-13T02:03:27;10.37;;;9.43;;
8572;SDS011;4324;42.012;24.872;2023-07-13T02:05:56;9.97;;;9.17;;
8572;SDS011;4324;42.012;24.872;2023-07-13T02:08:25;10.47;;;9.57;;
8572;SDS011;4324;42.012;24.872;2023-07-13T02:10:52;10.73;;;9.83;;
8572;SDS011;4324;42.012;24.872;2023-07-13T02:13:20;10.37;;;9.57;;
8572;SDS011;4324;42.012;24.872;2023-07-13T02:15:49;9.53;;;8.73;;
8572;SDS011;4324;42.012;24.872;2023-07-13T02:18:17;11.07;;;10.03;;
8572;SDS011;4324;42.012;24.872;2023-07-13T02:20:44;11.00;;;9.90;;
8572;SDS011;4324;42.012;24.872;2023-07-13T02:23:11;10.83;;;9.83;;
8572;SDS011;4324;42.012;24.872;2023-07-13T02:25:38;11.60;;;10.50;;
8572;SDS011;4324;42.012;24.872;2023-07-13T02:28:06;10.60;;;9.50;;
8572;SDS011;4324;42.012;24.872;2023-07-13T02:30:37;10.47;;;9.57;;
8572;SDS011;4324;42.012;24.872;2023-07-13T02:33:04;10.33;;;9.43;;
8572;SDS011;4324;42.012;24.872;2023-07-13T02:35:32;10.33;;;9.50;;
8572;SDS011;4324;42.012;24.872;2023-07-13T02:38:02;10.80;;;9.73;;
8572;SDS011;4324;42.012;24.872;2023-07-13T02:40:29;10.80;;;9.37;;
8572;SDS011;4324;42.012;24.872;2023-07-13T02:42:58;9.67;;;8.97;;
8572;SDS011;4324;42.012;24.872;2023-07-13T02:45:27;11.10;;;10.30;;
8572;SDS011;4324;42.012;24.872;2023-07-13T02:47:56;10.90;;;10.00;;
8572;SDS011;4324;42.012;24.872;2023-07-13T02:50:23;14.60;;;10.37;;
8572;SDS011;4324;42.012;24.872;2023-07-13T02:52:50;9.93;;;9.20;;
8572;SDS011;4324;42.012;24.872;2023-07-13T02:55:20;9.93;;;9.13;;
8572;SDS011;4324;42.012;24.872;2023-07-13T02:57:46;9.60;;;8.60;;
8572;SDS011;4324;42.012;24.872;2023-07-13T03:00:15;9.50;;;8.70;;
8572;SDS011;4324;42.012;24.872;2023-07-13T03:02:44;9.40;;;8.70;;
8572;SDS011;4324;42.012;24.872;2023-07-13T03:05:13;10.70;;;9.23;;
8572;SDS011;4324;42.012;24.872;2023-07-13T03:07:41;9.87;;;9.00;;
8572;SDS011;4324;42.012;24.872;2023-07-13T03:10:09;11.17;;;10.27;;
8572;SDS011;4324;42.012;24.872;2023-07-13T03:12:36;10.27;;;9.37;;
8572;SDS011;4324;42.012;24.872;2023-07-13T03:15:03;10.77;;;9.67;;
8572;SDS011;4324;42.012;24.872;2023-07-13T03:17:31;10.40;;;9.37;;
8572;SDS011;4324;42.012;24.872;2023-07-13T03:19:58;9.60;;;8.80;;
8572;SDS011;4324;42.012;24.872;2023-07-13T03:22:29;11.80;;;8.63;;
8572;SDS011;4324;42.012;24.872;2023-07-13T03:24:59;10.27;;;9.23;;
8572;SDS011;4324;42.012;24.872;2023-07-13T03:27:26;10.87;;;9.80;;
8572;SDS011;4324;42.012;24.872;2023-07-13T03:29:53;10.40;;;9.47;;
8572;SDS011;4324;42.012;24.872;2023-07-13T03:32:20;10.33;;;9.43;;
8572;SDS011;4324;42.012;24.872;2023-07-13T03:34:47;10.53;;;9.50;;
8572;SDS011;4324;42.012;24.872;2023-07-13T03:37:14;10.30;;;9.33;;
8572;SDS011;4324;42.012;24.872;2023-07-13T03:39:45;10.30;;;9.50;;
8572;SDS011;4324;42.012;24.872;2023-07-13T03:42:12;10.20;;;9.30;;
8572;SDS011;4324;42.012;24.872;2023-07-13T03:44:39;10.10;;;9.20;;
8572;SDS011;4324;42.012;24.872;2023-07-13T03:47:07;10.57;;;9.77;;
8572;SDS011;4324;42.012;24.872;2023-07-13T03:49:34;10.20;;;9.30;;
8572;SDS011;4324;42.012;24.872;2023-07-13T03:52:02;9.83;;;8.87;;
8572;SDS011;4324;42.012;24.872;2023-07-13T03:54:29;10.13;;;9.20;;
8572;SDS011;4324;42.012;24.872;2023-07-13T03:56:57;10.00;;;9.13;;
8572;SDS011;4324;42.012;24.872;2023-07-13T03:59:25;11.57;;;10.47;;
8572;SDS011;4324;42.012;24.872;2023-07-13T04:01:55;10.67;;;9.67;;
8572;SDS011;4324;42.012;24.872;2023-07-13T04:04:23;14.47;;;10.90;;
8572;SDS011;4324;42.012;24.872;2023-07-13T04:06:52;9.67;;;8.87;;
8572;SDS011;4324;42.012;24.872;2023-07-13T04:09:24;14.00;;;12.80;;
8572;SDS011;4324;42.012;24.872;2023-07-13T04:11:51;11.23;;;10.30;;
8572;SDS011;4324;42.012;24.872;2023-07-13T04:14:20;10.33;;;9.53;;
8572;SDS011;4324;42.012;24.872;2023-07-13T04:16:47;10.23;;;9.33;;
8572;SDS011;4324;42.012;24.872;2023-07-13T04:19:14;10.80;;;9.27;;
8572;SDS011;4324;42.012;24.872;2023-07-13T04:21:45;10.20;;;9.30;;
8572;SDS011;4324;42.012;24.872;2023-07-13T04:24:15;10.07;;;9.27;;
8572;SDS011;4324;42.012;24.872;2023-07-13T04:26:42;10.97;;;9.97;;
8572;SDS011;4324;42.012;24.872;2023-07-13T04:29:12;10.60;;;9.60;;
8572;SDS011;4324;42.012;24.872;2023-07-13T04:31:43;10.87;;;9.97;;
8572;SDS011;4324;42.012;24.872;2023-07-13T04:34:10;10.60;;;9.70;;
8572;SDS011;4324;42.012;24.872;2023-07-13T04:36:42;11.10;;;9.77;;
8572;SDS011;4324;42.012;24.872;2023-07-13T04:39:09;10.43;;;9.63;;
8572;SDS011;4324;42.012;24.872;2023-07-13T04:41:36;10.83;;;9.93;;
8572;SDS011;4324;42.012;24.872;2023-07-13T04:44:03;10.97;;;9.97;;
8572;SDS011;4324;42.012;24.872;2023-07-13T04:46:35;14.57;;;11.07;;
8572;SDS011;4324;42.012;24.872;2023-07-13T04:49:05;11.00;;;10.00;;
8572;SDS011;4324;42.012;24.872;2023-07-13T04:51:32;9.93;;;9.03;;
8572;SDS011;4324;42.012;24.872;2023-07-13T04:53:59;10.93;;;9.80;;
8572;SDS011;4324;42.012;24.872;2023-07-13T04:56:26;9.63;;;8.83;;
8572;SDS011;4324;42.012;24.872;2023-07-13T04:58:53;11.53;;;10.53;;
8572;SDS011;4324;42.012;24.872;2023-07-13T05:01:21;13.10;;;12.00;;
8572;SDS011;4324;42.012;24.872;2023-07-13T05:03:48;11.30;;;10.10;;
8572;SDS011;4324;42.012;24.872;2023-07-13T05:06:16;9.73;;;8.87;;
8572;SDS011;4324;42.012;24.872;2023-07-13T05:08:43;14.77;;;13.37;;
8572;SDS011;4324;42.012;24.872;2023-07-13T05:11:11;12.77;;;11.70;;
8572;SDS011;4324;42.012;24.872;2023-07-13T05:13:37;12.70;;;11.60;;
8572;SDS011;4324;42.012;24.872;2023-07-13T05:16:07;14.23;;;12.73;;
8572;SDS011;4324;42.012;24.872;2023-07-13T05:18:34;12.57;;;11.37;;
8572;SDS011;4324;42.012;24.872;2023-07-13T05:21:02;14.97;;;12.40;;
8572;SDS011;4324;42.012;24.872;2023-07-13T05:23:33;13.37;;;12.27;;
8572;SDS011;4324;42.012;24.872;2023-07-13T05:26:01;13.43;;;12.20;;
8572;SDS011;4324;42.012;24.872;2023-07-13T05:28:29;13.97;;;12.67;;
8572;SDS011;4324;42.012;24.872;2023-07-13T05:30:57;12.87;;;11.63;;
8572;SDS011;4324;42.012;24.872;2023-07-13T05:33:25;13.30;;;12.20;;
8572;SDS011;4324;42.012;24.872;2023-07-13T05:35:52;15.00;;;13.60;;
8572;SDS011;4324;42.012;24.872;2023-07-13T05:38:19;11.30;;;10.30;;
8572;SDS011;4324;42.012;24.872;2023-07-13T05:40:48;11.07;;;10.17;;
8572;SDS011;4324;42.012;24.872;2023-07-13T05:43:16;11.57;;;10.47;;
8572;SDS011;4324;42.012;24.872;2023-07-13T05:45:43;11.70;;;10.60;;
8572;SDS011;4324;42.012;24.872;2023-07-13T05:48:10;13.40;;;12.10;;
8572;SDS011;4324;42.012;24.872;2023-07-13T05:50:37;12.50;;;11.30;;
8572;SDS011;4324;42.012;24.872;2023-07-13T05:53:04;12.03;;;10.80;;
8572;SDS011;4324;42.012;24.872;2023-07-13T05:55:31;10.67;;;9.77;;
8572;SDS011;4324;42.012;24.872;2023-07-13T05:58:06;13.88;;;12.77;;
8572;SDS011;4324;42.012;24.872;2023-07-13T06:00:33;11.80;;;10.75;;
8572;SDS011;4324;42.012;24.872;2023-07-13T06:03:00;13.27;;;12.18;;
8572;SDS011;4324;42.012;24.872;2023-07-13T06:05:27;19.70;;;14.40;;
8572;SDS011;4324;42.012;24.872;2023-07-13T06:07:54;14.97;;;13.47;;
8572;SDS011;4324;42.012;24.872;2023-07-13T06:10:21;15.07;;;13.63;;
8572;SDS011;4324;42.012;24.872;2023-07-13T06:12:48;15.10;;;13.65;;
8572;SDS011;4324;42.012;24.872;2023-07-13T06:15:16;15.85;;;14.18;;
8572;SDS011;4324;42.012;24.872;2023-07-13T06:17:43;22.42;;;20.15;;
8572;SDS011;4324;42.012;24.872;2023-07-13T06:20:10;12.97;;;11.67;;
8572;SDS011;4324;42.012;24.872;2023-07-13T06:22:37;18.13;;;14.43;;
8572;SDS011;4324;42.012;24.872;2023-07-13T06:25:04;15.37;;;13.77;;
8572;SDS011;4324;42.012;24.872;2023-07-13T06:27:32;16.30;;;14.82;;
8572;SDS011;4324;42.012;24.872;2023-07-13T06:29:59;23.83;;;15.90;;
8572;SDS011;4324;42.012;24.872;2023-07-13T06:32:27;18.92;;;15.00;;
8572;SDS011;4324;42.012;24.872;2023-07-13T06:34:54;19.20;;;15.25;;
8572;SDS011;4324;42.012;24.872;2023-07-13T06:37:21;18.77;;;15.90;;
8572;SDS011;4324;42.012;24.872;2023-07-13T06:39:48;17.63;;;15.55;;
8572;SDS011;4324;42.012;24.872;2023-07-13T06:42:15;25.33;;;19.75;;
8572;SDS011;4324;42.012;24.872;2023-07-13T06:44:42;17.48;;;14.40;;
8572;SDS011;4324;42.012;24.872;2023-07-13T06:47:09;21.52;;;15.75;;
8572;SDS011;4324;42.012;24.872;2023-07-13T06:49:37;16.57;;;14.93;;
8572;SDS011;4324;42.012;24.872;2023-07-13T06:52:05;15.37;;;14.17;;
8572;SDS011;4324;42.012;24.872;2023-07-13T06:54:32;15.98;;;14.40;;
8572;SDS011;4324;42.012;24.872;2023-07-13T06:57:00;16.20;;;14.55;;
8572;SDS011;4324;42.012;24.872;2023-07-13T06:59:27;19.50;;;17.80;;
8572;SDS011;4324;42.012;24.872;2023-07-13T07:01:54;16.08;;;14.45;;
8572;SDS011;4324;42.012;24.872;2023-07-13T07:04:21;17.30;;;15.30;;
8572;SDS011;4324;42.012;24.872;2023-07-13T07:06:49;15.37;;;14.07;;
8572;SDS011;4324;42.012;24.872;2023-07-13T07:09:16;16.20;;;14.50;;
8572;SDS011;4324;42.012;24.872;2023-07-13T07:11:43;15.38;;;13.77;;
8572;SDS011;4324;42.012;24.872;2023-07-13T07:14:10;15.77;;;14.05;;
8572;SDS011;4324;42.012;24.872;2023-07-13T07:16:36;16.40;;;14.98;;
8572;SDS011;4324;42.012;24.872;2023-07-13T07:19:03;16.33;;;14.88;;
8572;SDS011;4324;42.012;24.872;2023-07-13T07:21:30;17.98;;;16.30;;
8572;SDS011;4324;42.012;24.872;2023-07-13T07:23:59;17.25;;;14.65;;
8572;SDS011;4324;42.012;24.872;2023-07-13T07:26:26;15.20;;;13.57;;
8572;SDS011;4324;42.012;24.872;2023-07-13T07:28:52;15.25;;;13.75;;
8572;SDS011;4324;42.012;24.872;2023-07-13T07:31:19;16.55;;;14.80;;
8572;SDS011;4324;42.012;24.872;2023-07-13T07:33:46;16.27;;;14.70;;
8572;SDS011;4324;42.012;24.872;2023-07-13T07:36:14;18.90;;;14.55;;
8572;SDS011;4324;42.012;24.872;2023-07-13T07:38:41;18.48;;;16.70;;
8572;SDS011;4324;42.012;24.872;2023-07-13T07:41:10;16.30;;;14.40;;
8572;SDS011;4324;42.012;24.872;2023-07-13T07:43:38;18.15;;;15.68;;
8572;SDS011;4324;42.012;24.872;2023-07-13T07:46:05;16.45;;;14.70;;
8572;SDS011;4324;42.012;24.872;2023-07-13T07:48:32;16.58;;;14.65;;
8572;SDS011;4324;42.012;24.872;2023-07-13T07:50:59;18.45;;;16.83;;
8572;SDS011;4324;42.012;24.872;2023-07-13T07:53:26;16.73;;;15.10;;
8572;SDS011;4324;42.012;24.872;2023-07-13T07:55:53;19.30;;;15.88;;
8572;SDS011;4324;42.012;24.872;2023-07-13T07:58:21;17.30;;;15.57;;
8572;SDS011;4324;42.012;24.872;2023-07-13T08:00:48;16.67;;;15.02;;
8572;SDS011;4324;42.012;24.872;2023-07-13T08:03:15;17.25;;;15.45;;
8572;SDS011;4324;42.012;24.872;2023-07-13T08:05:42;17.40;;;15.50;;
8572;SDS011;4324;42.012;24.872;2023-07-13T08:08:09;18.17;;;15.35;;
8572;SDS011;4324;42.012;24.872;2023-07-13T08:10:36;19.23;;;16.25;;
8572;SDS011;4324;42.012;24.872;2023-07-13T08:13:03;16.40;;;14.80;;
8572;SDS011;4324;42.012;24.872;2023-07-13T08:15:32;22.50;;;18.63;;
8572;SDS011;4324;42.012;24.872;2023-07-13T08:18:03;17.65;;;15.63;;
8572;SDS011;4324;42.012;24.872;2023-07-13T08:20:31;20.05;;;16.20;;
8572;SDS011;4324;42.012;24.872;2023-07-13T08:22:58;19.85;;;16.20;;
8572;SDS011;4324;42.012;24.872;2023-07-13T08:25:25;18.05;;;16.35;;
8572;SDS011;4324;42.012;24.872;2023-07-13T08:27:52;22.05;;;16.70;;
8572;SDS011;4324;42.012;24.872;2023-07-13T08:30:19;17.00;;;15.38;;
8572;SDS011;4324;42.012;24.872;2023-07-13T08:32:47;17.52;;;15.90;;
8572;SDS011;4324;42.012;24.872;2023-07-13T08:35:15;17.45;;;15.82;;
8572;SDS011;4324;42.012;24.872;2023-07-13T08:37:42;17.27;;;15.80;;
8572;SDS011;4324;42.012;24.872;2023-07-13T08:40:12;16.20;;;14.80;;
8572;SDS011;4324;42.012;24.872;2023-07-13T08:42:42;17.27;;;15.68;;
8572;SDS011;4324;42.012;24.872;2023-07-13T08:45:14;16.77;;;15.07;;
8572;SDS011;4324;42.012;24.872;2023-07-13T08:47:50;15.18;;;13.80;;
8572;SDS011;4324;42.012;24.872;2023-07-13T08:50:21;19.85;;;17.63;;
8572;SDS011;4324;42.012;24.872;2023-07-13T08:52:54;16.33;;;14.60;;
8572;SDS011;4324;42.012;24.872;2023-07-13T08:55:24;16.17;;;14.60;;
8572;SDS011;4324;42.012;24.872;2023-07-13T08:57:59;15.65;;;14.15;;
8572;SDS011;4324;42.012;24.872;2023-07-13T09:00:32;14.90;;;13.70;;
8572;SDS011;4324;42.012;24.872;2023-07-13T09:03:12;14.18;;;12.85;;
8572;SDS011;4324;42.012;24.872;2023-07-13T09:05:47;15.00;;;13.57;;
8572;SDS011;4324;42.012;24.872;2023-07-13T09:08:38;14.45;;;13.00;;
8572;SDS011;4324;42.012;24.872;2023-07-13T09:11:20;14.93;;;13.32;;
8572;SDS011;4324;42.012;24.872;2023-07-13T09:14:01;13.82;;;12.43;;
8572;SDS011;4324;42.012;24.872;2023-07-13T09:16:53;13.82;;;12.60;;
8572;SDS011;4324;42.012;24.872;2023-07-13T09:19:23;15.98;;;14.52;;
8572;SDS011;4324;42.012;24.872;2023-07-13T09:21:55;15.48;;;14.15;;
8572;SDS011;4324;42.012;24.872;2023-07-13T09:24:30;15.60;;;14.20;;
8572;SDS011;4324;42.012;24.872;2023-07-13T09:27:05;16.75;;;15.35;;
8572;SDS011;4324;42.012;24.872;2023-07-13T09:29:44;15.65;;;14.23;;
8572;SDS011;4324;42.012;24.872;2023-07-13T09:32:16;15.75;;;14.15;;
8572;SDS011;4324;42.012;24.872;2023-07-13T09:34:51;15.25;;;13.68;;
8572;SDS011;4324;42.012;24.872;2023-07-13T09:37:20;16.08;;;14.45;;
8572;SDS011;4324;42.012;24.872;2023-07-13T09:39:48;17.30;;;15.88;;
8572;SDS011;4324;42.012;24.872;2023-07-13T09:42:16;18.70;;;17.00;;
8572;SDS011;4324;42.012;24.872;2023-07-13T09:44:51;15.27;;;13.88;;
8572;SDS011;4324;42.012;24.872;2023-07-13T09:47:20;15.90;;;14.50;;
8572;SDS011;4324;42.012;24.872;2023-07-13T09:49:56;15.32;;;13.85;;
8572;SDS011;4324;42.012;24.872;2023-07-13T09:52:25;17.30;;;15.40;;
8572;SDS011;4324;42.012;24.872;2023-07-13T09:54:54;15.30;;;13.00;;
8572;SDS011;4324;42.012;24.872;2023-07-13T09:57:25;16.02;;;14.70;;
8572;SDS011;4324;42.012;24.872;2023-07-13T09:59:53;11.27;;;10.32;;
8572;SDS011;4324;42.012;24.872;2023-07-13T10:02:25;11.75;;;10.63;;
8572;SDS011;4324;42.012;24.872;2023-07-13T10:04:59;12.88;;;11.65;;
8572;SDS011;4324;42.012;24.872;2023-07-13T10:07:30;12.65;;;11.52;;
8572;SDS011;4324;42.012;24.872;2023-07-13T10:09:59;13.70;;;12.40;;
8572;SDS011;4324;42.012;24.872;2023-07-13T10:12:28;16.58;;;14.98;;
8572;SDS011;4324;42.012;24.872;2023-07-13T10:15:03;13.52;;;12.23;;
8572;SDS011;4324;42.012;24.872;2023-07-13T10:17:40;12.30;;;11.02;;
8572;SDS011;4324;42.012;24.872;2023-07-13T10:20:09;11.05;;;10.15;;
8572;SDS011;4324;42.012;24.872;2023-07-13T10:22:39;12.98;;;10.98;;
8572;SDS011;4324;42.012;24.872;2023-07-13T10:25:16;10.95;;;9.90;;
8572;SDS011;4324;42.012;24.872;2023-07-13T10:27:44;10.65;;;9.55;;
8572;SDS011;4324;42.012;24.872;2023-07-13T10:30:14;10.30;;;9.40;;
8572;SDS011;4324;42.012;24.872;2023-07-13T10:32:43;10.65;;;9.70;;
8572;SDS011;4324;42.012;24.872;2023-07-13T10:35:13;11.88;;;10.80;;
8572;SDS011;4324;42.012;24.872;2023-07-13T10:37:44;9.73;;;8.93;;
8572;SDS011;4324;42.012;24.872;2023-07-13T10:40:16;10.27;;;9.38;;
8572;SDS011;4324;42.012;24.872;2023-07-13T10:42:56;9.40;;;8.70;;
8572;SDS011;4324;42.012;24.872;2023-07-13T10:45:25;8.32;;;7.47;;
8572;SDS011;4324;42.012;24.872;2023-07-13T10:47:55;8.82;;;7.82;;
8572;SDS011;4324;42.012;24.872;2023-07-13T10:50:24;11.48;;;7.95;;
8572;SDS011;4324;42.012;24.872;2023-07-13T10:52:53;11.00;;;8.20;;
8572;SDS011;4324;42.012;24.872;2023-07-13T10:55:33;9.40;;;8.57;;
8572;SDS011;4324;42.012;24.872;2023-07-13T10:58:03;9.23;;;8.30;;
8572;SDS011;4324;42.012;24.872;2023-07-13T11:00:51;10.10;;;7.95;;
8572;SDS011;4324;42.012;24.872;2023-07-13T11:03:22;9.30;;;8.40;;
8572;SDS011;4324;42.012;24.872;2023-07-13T11:06:05;8.35;;;7.65;;
8572;SDS011;4324;42.012;24.872;2023-07-13T11:08:36;9.23;;;8.38;;
8572;SDS011;4324;42.012;24.872;2023-07-13T11:11:09;8.23;;;7.50;;
8572;SDS011;4324;42.012;24.872;2023-07-13T11:14:09;9.35;;;8.45;;
8572;SDS011;4324;42.012;24.872;2023-07-13T11:16:53;9.82;;;8.88;;
8572;SDS011;4324;42.012;24.872;2023-07-13T11:22:16;10.48;;;9.57;;
8572;SDS011;4324;42.012;24.872;2023-07-13T11:24:49;11.63;;;10.38;;
8572;SDS011;4324;42.012;24.872;2023-07-13T11:27:25;14.93;;;13.38;;
8572;SDS011;4324;42.012;24.872;2023-07-13T11:30:09;12.35;;;11.32;;
8572;SDS011;4324;42.012;24.872;2023-07-13T11:32:50;10.10;;;9.15;;
8572;SDS011;4324;42.012;24.872;2023-07-13T11:35:21;9.43;;;8.48;;
8572;SDS011;4324;42.012;24.872;2023-07-13T11:37:49;9.13;;;8.35;;
8572;SDS011;4324;42.012;24.872;2023-07-13T11:40:18;10.93;;;9.10;;
8572;SDS011;4324;42.012;24.872;2023-07-13T11:42:50;10.77;;;9.18;;
8572;SDS011;4324;42.012;24.872;2023-07-13T11:45:18;9.43;;;8.50;;
8572;SDS011;4324;42.012;24.872;2023-07-13T11:47:48;11.45;;;10.00;;
8572;SDS011;4324;42.012;24.872;2023-07-13T11:50:17;10.52;;;9.52;;
8572;SDS011;4324;42.012;24.872;2023-07-13T11:52:49;9.93;;;9.05;;
8572;SDS011;4324;42.012;24.872;2023-07-13T11:55:21;9.85;;;8.95;;
8572;SDS011;4324;42.012;24.872;2023-07-13T11:57:53;10.27;;;9.38;;
8572;SDS011;4324;42.012;24.872;2023-07-13T12:00:26;10.15;;;9.23;;
8572;SDS011;4324;42.012;24.872;2023-07-13T12:02:59;9.45;;;8.55;;
8572;SDS011;4324;42.012;24.872;2023-07-13T12:05:30;9.38;;;8.57;;
8572;SDS011;4324;42.012;24.872;2023-07-13T12:07:58;8.75;;;8.05;;
8572;SDS011;4324;42.012;24.872;2023-07-13T12:10:25;9.30;;;8.48;;
8572;SDS011;4324;42.012;24.872;2023-07-13T12:12:56;10.70;;;8.60;;
8572;SDS011;4324;42.012;24.872;2023-07-13T12:15:28;10.50;;;9.23;;
8572;SDS011;4324;42.012;24.872;2023-07-13T12:18:03;10.45;;;9.05;;
8572;SDS011;4324;42.012;24.872;2023-07-13T12:20:37;9.98;;;8.85;;
8572;SDS011;4324;42.012;24.872;2023-07-13T12:23:05;9.50;;;8.70;;
8572;SDS011;4324;42.012;24.872;2023-07-13T12:25:41;10.60;;;9.68;;
8572;SDS011;4324;42.012;24.872;2023-07-13T12:28:21;12.23;;;11.13;;
8572;SDS011;4324;42.012;24.872;2023-07-13T12:30:49;10.70;;;9.60;;
8572;SDS011;4324;42.012;24.872;2023-07-13T12:33:24;10.30;;;9.05;;
8572;SDS011;4324;42.012;24.872;2023-07-13T12:35:54;11.93;;;9.85;;
8572;SDS011;4324;42.012;24.872;2023-07-13T12:38:24;10.88;;;9.98;;
8572;SDS011;4324;42.012;24.872;2023-07-13T12:40:51;10.63;;;9.18;;
8572;SDS011;4324;42.012;24.872;2023-07-13T12:43:21;9.90;;;9.00;;
8572;SDS011;4324;42.012;24.872;2023-07-13T12:45:56;13.02;;;9.68;;
8572;SDS011;4324;42.012;24.872;2023-07-13T12:48:25;9.48;;;8.50;;
8572;SDS011;4324;42.012;24.872;2023-07-13T12:50:53;9.68;;;8.85;;
8572;SDS011;4324;42.012;24.872;2023-07-13T12:53:21;9.80;;;9.00;;
8572;SDS011;4324;42.012;24.872;2023-07-13T12:55:54;10.02;;;8.93;;
8572;SDS011;4324;42.012;24.872;2023-07-13T12:58:26;9.10;;;8.40;;
8572;SDS011;4324;42.012;24.872;2023-07-13T13:00:56;9.55;;;8.63;;
8572;SDS011;4324;42.012;24.872;2023-07-13T13:03:26;9.35;;;8.55;;
8572;SDS011;4324;42.012;24.872;2023-07-13T13:05:58;11.18;;;10.18;;
8572;SDS011;4324;42.012;24.872;2023-07-13T13:08:28;10.50;;;9.48;;
8572;SDS011;4324;42.012;24.872;2023-07-13T13:10:55;9.55;;;8.60;;
8572;SDS011;4324;42.012;24.872;2023-07-13T13:13:22;9.88;;;8.93;;
8572;SDS011;4324;42.012;24.872;2023-07-13T13:15:51;9.65;;;8.60;;
8572;SDS011;4324;42.012;24.872;2023-07-13T13:18:19;9.65;;;8.65;;
8572;SDS011;4324;42.012;24.872;2023-07-13T13:20:48;12.80;;;9.52;;
8572;SDS011;4324;42.012;24.872;2023-07-13T13:23:16;11.57;;;10.38;;
8572;SDS011;4324;42.012;24.872;2023-07-13T13:25:44;13.85;;;12.40;;
8572;SDS011;4324;42.012;24.872;2023-07-13T13:28:13;11.82;;;8.73;;
8572;SDS011;4324;42.012;24.872;2023-07-13T13:30:43;11.35;;;8.73;;
8572;SDS011;4324;42.012;24.872;2023-07-13T13:33:17;11.38;;;8.80;;
8572;SDS011;4324;42.012;24.872;2023-07-13T13:35:45;9.25;;;8.23;;
8572;SDS011;4324;42.012;24.872;2023-07-13T13:38:13;9.48;;;8.52;;
8572;SDS011;4324;42.012;24.872;2023-07-13T13:40:42;8.77;;;8.00;;
8572;SDS011;4324;42.012;24.872;2023-07-13T13:43:16;9.13;;;8.07;;
8572;SDS011;4324;42.012;24.872;2023-07-13T13:45:44;9.38;;;8.48;;
8572;SDS011;4324;42.012;24.872;2023-07-13T13:48:17;11.10;;;8.95;;
8572;SDS011;4324;42.012;24.872;2023-07-13T13:50:47;9.30;;;8.30;;
8572;SDS011;4324;42.012;24.872;2023-07-13T13:53:15;8.93;;;7.97;;
8572;SDS011;4324;42.012;24.872;2023-07-13T13:55:42;11.38;;;8.98;;
8572;SDS011;4324;42.012;24.872;2023-07-13T13:58:09;10.73;;;9.30;;
8572;SDS011;4324;42.012;24.872;2023-07-13T14:00:36;12.15;;;10.93;;
8572;SDS011;4324;42.012;24.872;2023-07-13T14:03:03;8.80;;;8.00;;
8572;SDS011;4324;42.012;24.872;2023-07-13T14:05:33;12.18;;;10.57;;
8572;SDS011;4324;42.012;24.872;2023-07-13T14:08:01;12.60;;;8.77;;
8572;SDS011;4324;42.012;24.872;2023-07-13T14:10:28;9.77;;;8.77;;
8572;SDS011;4324;42.012;24.872;2023-07-13T14:12:55;9.60;;;8.63;;
8572;SDS011;4324;42.012;24.872;2023-07-13T14:15:24;8.93;;;7.57;;
8572;SDS011;4324;42.012;24.872;2023-07-13T14:17:53;12.05;;;8.45;;
8572;SDS011;4324;42.012;24.872;2023-07-13T14:20:21;11.25;;;8.50;;
8572;SDS011;4324;42.012;24.872;2023-07-13T14:22:51;10.85;;;8.00;;
8572;SDS011;4324;42.012;24.872;2023-07-13T14:25:20;13.00;;;7.70;;
8572;SDS011;4324;42.012;24.872;2023-07-13T14:27:52;11.18;;;9.43;;
8572;SDS011;4324;42.012;24.872;2023-07-13T14:30:22;14.60;;;10.63;;
8572;SDS011;4324;42.012;24.872;2023-07-13T14:32:48;15.15;;;8.13;;
8572;SDS011;4324;42.012;24.872;2023-07-13T14:35:16;10.25;;;8.20;;
8572;SDS011;4324;42.012;24.872;2023-07-13T14:37:47;9.70;;;7.65;;
8572;SDS011;4324;42.012;24.872;2023-07-13T14:40:16;10.90;;;8.93;;
8572;SDS011;4324;42.012;24.872;2023-07-13T14:42:45;16.33;;;13.60;;
8572;SDS011;4324;42.012;24.872;2023-07-13T14:45:13;13.70;;;9.60;;
8572;SDS011;4324;42.012;24.872;2023-07-13T14:47:43;8.73;;;7.75;;
8572;SDS011;4324;42.012;24.872;2023-07-13T14:50:15;13.13;;;7.85;;
8572;SDS011;4324;42.012;24.872;2023-07-13T14:52:43;9.35;;;7.40;;
8572;SDS011;4324;42.012;24.872;2023-07-13T14:55:11;12.30;;;8.02;;
8572;SDS011;4324;42.012;24.872;2023-07-13T14:57:40;13.98;;;10.13;;
8572;SDS011;4324;42.012;24.872;2023-07-13T15:00:17;17.27;;;11.15;;